sensor_id;sensor_type;location;lat;lon;timestamp;pressure;altitude;pressure_sealevel;temperature;humidity
64886;BME280;51514;52.206;5.114;2022-12-18T00:01:24;102888.66;;;-2.05;87.47
64886;BME280;51514;52.206;5.114;2022-12-18T00:03:51;102891.25;;;-2.02;87.32
64886;BME280;51514;52.206;5.114;2022-12-18T00:06:19;102886.09;;;-2.08;87.41
64886;BME280;51514;52.206;5.114;2022-12-18T00:08:44;102889.63;;;-2.09;88.18
64886;BME280;51514;52.206;5.114;2022-12-18T00:11:15;102886.19;;;-2.14;87.87
64886;BME280;51514;52.206;5.114;2022-12-18T00:13:41;102882.75;;;-2.17;87.77
64886;BME280;51514;52.206;5.114;2022-12-18T00:16:09;102879.25;;;-2.19;87.81
64886;BME280;51514;52.206;5.114;2022-12-18T00:18:35;102879.28;;;-2.21;88.02
64886;BME280;51514;52.206;5.114;2022-12-18T00:21:06;102888.22;;;-2.28;88.19
64886;BME280;51514;52.206;5.114;2022-12-18T00:23:32;102878.66;;;-2.37;88.09
64886;BME280;51514;52.206;5.114;2022-12-18T00:26:02;102884.13;;;-2.46;88.20
64886;BME280;51514;52.206;5.114;2022-12-18T00:28:27;102883.31;;;-2.49;88.36
64886;BME280;51514;52.206;5.114;2022-12-18T00:31:07;102890.47;;;-2.58;88.54
64886;BME280;51514;52.206;5.114;2022-12-18T00:33:34;102886.91;;;-2.53;89.05
64886;BME280;51514;52.206;5.114;2022-12-18T00:36:03;102882.50;;;-2.53;89.18
64886;BME280;51514;52.206;5.114;2022-12-18T00:38:29;102872.69;;;-2.48;89.02
64886;BME280;51514;52.206;5.114;2022-12-18T00:40:55;102877.09;;;-2.47;89.07
64886;BME280;51514;52.206;5.114;2022-12-18T00:43:20;102872.75;;;-2.49;88.58
64886;BME280;51514;52.206;5.114;2022-12-18T00:45:45;102869.31;;;-2.54;89.09
64886;BME280;51514;52.206;5.114;2022-12-18T00:48:11;102880.75;;;-2.55;88.81
64886;BME280;51514;52.206;5.114;2022-12-18T00:50:36;102884.28;;;-2.55;88.53
64886;BME280;51514;52.206;5.114;2022-12-18T00:53:01;102878.94;;;-2.50;88.55
64886;BME280;51514;52.206;5.114;2022-12-18T00:55:27;102877.97;;;-2.46;88.26
64886;BME280;51514;52.206;5.114;2022-12-18T00:57:52;102877.78;;;-2.37;88.53
64886;BME280;51514;52.206;5.114;2022-12-18T01:00:18;102880.34;;;-2.31;88.39
64886;BME280;51514;52.206;5.114;2022-12-18T01:02:43;102881.28;;;-2.34;87.49
64886;BME280;51514;52.206;5.114;2022-12-18T01:05:10;102883.00;;;-2.33;87.67
64886;BME280;51514;52.206;5.114;2022-12-18T01:07:36;102886.53;;;-2.32;87.27
64886;BME280;51514;52.206;5.114;2022-12-18T01:10:01;102884.78;;;-2.33;87.12
64886;BME280;51514;52.206;5.114;2022-12-18T01:12:26;102888.38;;;-2.37;87.58
64886;BME280;51514;52.206;5.114;2022-12-18T01:14:52;102876.09;;;-2.38;87.31
64886;BME280;51514;52.206;5.114;2022-12-18T01:17:17;102878.66;;;-2.35;87.23
64886;BME280;51514;52.206;5.114;2022-12-18T01:19:42;102879.56;;;-2.38;87.17
64886;BME280;51514;52.206;5.114;2022-12-18T01:22:08;102885.81;;;-2.42;87.38
64886;BME280;51514;52.206;5.114;2022-12-18T01:24:33;102877.00;;;-2.41;86.90
64886;BME280;51514;52.206;5.114;2022-12-18T01:26:58;102874.38;;;-2.42;87.05
64886;BME280;51514;52.206;5.114;2022-12-18T01:29:24;102879.66;;;-2.42;86.59
64886;BME280;51514;52.206;5.114;2022-12-18T01:31:49;102874.53;;;-2.50;86.64
64886;BME280;51514;52.206;5.114;2022-12-18T01:34:14;102892.22;;;-2.57;86.85
64886;BME280;51514;52.206;5.114;2022-12-18T01:36:40;102890.59;;;-2.64;86.76
64886;BME280;51514;52.206;5.114;2022-12-18T01:39:10;102884.47;;;-2.67;86.81
64886;BME280;51514;52.206;5.114;2022-12-18T01:41:37;102879.16;;;-2.64;86.93
64886;BME280;51514;52.206;5.114;2022-12-18T01:44:57;102880.03;;;-2.64;86.78
64886;BME280;51514;52.206;5.114;2022-12-18T01:49:53;102879.16;;;-2.66;86.42
64886;BME280;51514;52.206;5.114;2022-12-18T01:52:20;102896.06;;;-2.77;86.87
64886;BME280;51514;52.206;5.114;2022-12-18T01:54:47;102898.75;;;-2.80;86.98
64886;BME280;51514;52.206;5.114;2022-12-18T01:57:13;102910.28;;;-2.86;87.15
64886;BME280;51514;52.206;5.114;2022-12-18T01:59:40;102913.91;;;-2.93;87.50
64886;BME280;51514;52.206;5.114;2022-12-18T02:02:08;102922.63;;;-2.88;87.93
64886;BME280;51514;52.206;5.114;2022-12-18T02:04:34;102919.91;;;-2.82;87.89
64886;BME280;51514;52.206;5.114;2022-12-18T02:07:26;102927.84;;;-2.82;87.33
64886;BME280;51514;52.206;5.114;2022-12-18T02:10:15;102933.16;;;-2.85;87.20
64886;BME280;51514;52.206;5.114;2022-12-18T02:12:58;102933.13;;;-2.83;87.88
64886;BME280;51514;52.206;5.114;2022-12-18T02:18:20;102954.09;;;-2.73;87.05
64886;BME280;51514;52.206;5.114;2022-12-18T02:20:50;102945.28;;;-2.72;87.29
64886;BME280;51514;52.206;5.114;2022-12-18T02:31:21;102937.31;;;-2.70;87.21
64886;BME280;51514;52.206;5.114;2022-12-18T02:33:49;102929.38;;;-2.69;86.84
64886;BME280;51514;52.206;5.114;2022-12-18T02:36:17;102931.94;;;-2.63;86.43
64886;BME280;51514;52.206;5.114;2022-12-18T02:38:45;102918.72;;;-2.61;86.57
64886;BME280;51514;52.206;5.114;2022-12-18T02:41:13;102923.97;;;-2.60;86.09
64886;BME280;51514;52.206;5.114;2022-12-18T02:43:40;102902.78;;;-2.57;86.53
64886;BME280;51514;52.206;5.114;2022-12-18T02:46:33;102895.75;;;-2.58;86.07
64886;BME280;51514;52.206;5.114;2022-12-18T02:51:54;102887.97;;;-2.67;85.90
64886;BME280;51514;52.206;5.114;2022-12-18T02:54:32;102887.06;;;-2.63;85.85
64886;BME280;51514;52.206;5.114;2022-12-18T02:57:09;102878.22;;;-2.62;85.92
64886;BME280;51514;52.206;5.114;2022-12-18T02:59:49;102885.25;;;-2.61;85.75
64886;BME280;51514;52.206;5.114;2022-12-18T03:02:42;102880.06;;;-2.68;85.91
64886;BME280;51514;52.206;5.114;2022-12-18T03:05:18;102874.81;;;-2.70;85.86
64886;BME280;51514;52.206;5.114;2022-12-18T03:07:53;102875.59;;;-2.62;85.74
64886;BME280;51514;52.206;5.114;2022-12-18T03:10:26;102881.66;;;-2.57;84.97
64886;BME280;51514;52.206;5.114;2022-12-18T03:13:31;102873.72;;;-2.55;84.59
64886;BME280;51514;52.206;5.114;2022-12-18T03:15:59;102862.31;;;-2.59;83.95
64886;BME280;51514;52.206;5.114;2022-12-18T03:18:30;102861.38;;;-2.54;84.07
64886;BME280;51514;52.206;5.114;2022-12-18T03:20:58;102859.72;;;-2.60;83.84
64886;BME280;51514;52.206;5.114;2022-12-18T03:23:30;102847.53;;;-2.70;83.51
64886;BME280;51514;52.206;5.114;2022-12-18T03:26:03;102851.06;;;-2.70;83.40
64886;BME280;51514;52.206;5.114;2022-12-18T03:28:30;102858.03;;;-2.66;83.60
64886;BME280;51514;52.206;5.114;2022-12-18T03:30:58;102848.31;;;-2.62;83.61
64886;BME280;51514;52.206;5.114;2022-12-18T03:33:30;102843.00;;;-2.61;83.49
64886;BME280;51514;52.206;5.114;2022-12-18T03:35:57;102839.47;;;-2.60;82.73
64886;BME280;51514;52.206;5.114;2022-12-18T03:38:23;102839.50;;;-2.61;82.19
64886;BME280;51514;52.206;5.114;2022-12-18T03:47:07;102835.13;;;-2.62;81.02
64886;BME280;51514;52.206;5.114;2022-12-18T03:49:39;102832.50;;;-2.65;81.57
64886;BME280;51514;52.206;5.114;2022-12-18T03:52:15;102836.03;;;-2.65;81.06
64886;BME280;51514;52.206;5.114;2022-12-18T03:54:44;102832.50;;;-2.64;81.10
64886;BME280;51514;52.206;5.114;2022-12-18T03:57:15;102836.06;;;-2.66;80.08
64886;BME280;51514;52.206;5.114;2022-12-18T03:59:43;102826.34;;;-2.64;80.10
64886;BME280;51514;52.206;5.114;2022-12-18T04:02:10;102818.47;;;-2.67;80.16
64886;BME280;51514;52.206;5.114;2022-12-18T04:04:37;102821.16;;;-2.70;80.30
64886;BME280;51514;52.206;5.114;2022-12-18T04:07:04;102815.06;;;-2.74;80.15
64886;BME280;51514;52.206;5.114;2022-12-18T04:09:30;102802.81;;;-2.78;79.71
64886;BME280;51514;52.206;5.114;2022-12-18T04:11:56;102794.13;;;-2.83;80.23
64886;BME280;51514;52.206;5.114;2022-12-18T04:14:22;102791.56;;;-2.90;80.03
64886;BME280;51514;52.206;5.114;2022-12-18T04:16:47;102794.28;;;-2.92;80.18
64886;BME280;51514;52.206;5.114;2022-12-18T04:19:12;102794.31;;;-2.95;80.05
64886;BME280;51514;52.206;5.114;2022-12-18T04:21:38;102796.13;;;-3.00;80.05
64886;BME280;51514;52.206;5.114;2022-12-18T04:24:04;102796.22;;;-3.03;79.83
64886;BME280;51514;52.206;5.114;2022-12-18T04:26:30;102797.03;;;-3.03;79.56
64886;BME280;51514;52.206;5.114;2022-12-18T04:28:55;102800.63;;;-3.04;79.20
64886;BME280;51514;52.206;5.114;2022-12-18T04:31:21;102808.56;;;-3.05;79.45
64886;BME280;51514;52.206;5.114;2022-12-18T04:33:46;102814.72;;;-3.06;79.38
64886;BME280;51514;52.206;5.114;2022-12-18T04:36:11;102813.00;;;-3.10;79.31
64886;BME280;51514;52.206;5.114;2022-12-18T04:38:37;102816.53;;;-3.11;78.75
64886;BME280;51514;52.206;5.114;2022-12-18T04:41:03;102816.53;;;-3.11;79.19
64886;BME280;51514;52.206;5.114;2022-12-18T04:43:28;102823.59;;;-3.13;78.81
64886;BME280;51514;52.206;5.114;2022-12-18T04:45:53;102828.88;;;-3.13;78.71
64886;BME280;51514;52.206;5.114;2022-12-18T04:48:25;102820.94;;;-3.12;78.36
64886;BME280;51514;52.206;5.114;2022-12-18T04:50:51;102832.34;;;-3.10;78.27
64886;BME280;51514;52.206;5.114;2022-12-18T04:53:16;102831.44;;;-3.07;78.34
64886;BME280;51514;52.206;5.114;2022-12-18T04:55:42;102833.19;;;-3.06;77.92
64886;BME280;51514;52.206;5.114;2022-12-18T04:58:07;102840.25;;;-3.08;77.33
64886;BME280;51514;52.206;5.114;2022-12-18T05:00:32;102844.66;;;-3.10;77.33
64886;BME280;51514;52.206;5.114;2022-12-18T05:03:00;102855.25;;;-3.13;77.05
64886;BME280;51514;52.206;5.114;2022-12-18T05:05:26;102853.50;;;-3.13;77.35
64886;BME280;51514;52.206;5.114;2022-12-18T05:07:52;102857.91;;;-3.13;77.44
64886;BME280;51514;52.206;5.114;2022-12-18T05:10:17;102858.78;;;-3.13;76.93
64886;BME280;51514;52.206;5.114;2022-12-18T05:12:42;102852.59;;;-3.12;77.25
64886;BME280;51514;52.206;5.114;2022-12-18T05:15:26;102853.50;;;-3.13;76.90
64886;BME280;51514;52.206;5.114;2022-12-18T05:17:51;102864.13;;;-3.16;76.72
64886;BME280;51514;52.206;5.114;2022-12-18T05:20:17;102855.25;;;-3.13;77.50
64886;BME280;51514;52.206;5.114;2022-12-18T05:22:43;102866.72;;;-3.14;77.00
64886;BME280;51514;52.206;5.114;2022-12-18T05:25:08;102881.63;;;-3.12;77.22
64886;BME280;51514;52.206;5.114;2022-12-18T05:27:34;102879.84;;;-3.10;76.90
64886;BME280;51514;52.206;5.114;2022-12-18T05:29:59;102876.38;;;-3.13;77.01
64886;BME280;51514;52.206;5.114;2022-12-18T05:32:24;102879.94;;;-3.16;77.05
64886;BME280;51514;52.206;5.114;2022-12-18T05:34:50;102869.47;;;-3.22;77.28
64886;BME280;51514;52.206;5.114;2022-12-18T05:37:15;102873.84;;;-3.22;76.81
64886;BME280;51514;52.206;5.114;2022-12-18T05:39:40;102857.25;;;-3.27;76.99
64886;BME280;51514;52.206;5.114;2022-12-18T05:42:06;102852.88;;;-3.32;77.43
64886;BME280;51514;52.206;5.114;2022-12-18T05:44:31;102853.78;;;-3.34;77.70
64886;BME280;51514;52.206;5.114;2022-12-18T05:46:56;102853.06;;;-3.44;77.19
64886;BME280;51514;52.206;5.114;2022-12-18T05:49:21;102851.28;;;-3.43;77.52
64886;BME280;51514;52.206;5.114;2022-12-18T05:51:47;102858.28;;;-3.41;78.03
64886;BME280;51514;52.206;5.114;2022-12-18T05:54:12;102842.44;;;-3.38;77.61
64886;BME280;51514;52.206;5.114;2022-12-18T05:56:37;102831.06;;;-3.41;77.45
64886;BME280;51514;52.206;5.114;2022-12-18T05:59:03;102824.03;;;-3.42;77.34
64886;BME280;51514;52.206;5.114;2022-12-18T06:01:29;102831.16;;;-3.47;77.12
64886;BME280;51514;52.206;5.114;2022-12-18T06:03:54;102832.97;;;-3.52;77.73
64886;BME280;51514;52.206;5.114;2022-12-18T06:06:23;102836.59;;;-3.61;77.57
64886;BME280;51514;52.206;5.114;2022-12-18T06:08:49;102830.44;;;-3.61;77.77
64886;BME280;51514;52.206;5.114;2022-12-18T06:11:20;102831.38;;;-3.67;77.97
64886;BME280;51514;52.206;5.114;2022-12-18T06:13:46;102819.03;;;-3.62;77.92
64886;BME280;51514;52.206;5.114;2022-12-18T06:16:14;102808.47;;;-3.62;77.89
64886;BME280;51514;52.206;5.114;2022-12-18T06:18:39;102825.19;;;-3.63;78.14
64886;BME280;51514;52.206;5.114;2022-12-18T06:21:05;102821.78;;;-3.71;77.91
64886;BME280;51514;52.206;5.114;2022-12-18T06:23:30;102821.81;;;-3.74;78.09
64886;BME280;51514;52.206;5.114;2022-12-18T06:25:55;102819.22;;;-3.77;78.14
64886;BME280;51514;52.206;5.114;2022-12-18T06:28:21;102820.97;;;-3.78;78.03
64886;BME280;51514;52.206;5.114;2022-12-18T06:30:47;102827.09;;;-3.74;77.92
64886;BME280;51514;52.206;5.114;2022-12-18T06:33:14;102821.81;;;-3.74;77.69
64886;BME280;51514;52.206;5.114;2022-12-18T06:35:39;102813.03;;;-3.73;77.80
64886;BME280;51514;52.206;5.114;2022-12-18T06:38:05;102813.06;;;-3.76;77.85
64886;BME280;51514;52.206;5.114;2022-12-18T06:40:30;102807.78;;;-3.76;77.71
64886;BME280;51514;52.206;5.114;2022-12-18T06:42:56;102798.13;;;-3.76;77.94
64886;BME280;51514;52.206;5.114;2022-12-18T06:45:21;102784.91;;;-3.74;78.03
64886;BME280;51514;52.206;5.114;2022-12-18T06:47:46;102784.13;;;-3.79;77.93
64886;BME280;51514;52.206;5.114;2022-12-18T06:50:12;102777.03;;;-3.77;77.72
64886;BME280;51514;52.206;5.114;2022-12-18T06:52:39;102771.81;;;-3.79;77.47
64886;BME280;51514;52.206;5.114;2022-12-18T06:55:06;102775.41;;;-3.86;77.82
64886;BME280;51514;52.206;5.114;2022-12-18T06:57:31;102764.00;;;-3.86;78.21
64886;BME280;51514;52.206;5.114;2022-12-18T06:59:57;102765.75;;;-3.85;77.88
64886;BME280;51514;52.206;5.114;2022-12-18T07:02:22;102768.38;;;-3.85;77.47
64886;BME280;51514;52.206;5.114;2022-12-18T07:04:47;102773.66;;;-3.85;77.87
64886;BME280;51514;52.206;5.114;2022-12-18T07:07:13;102763.97;;;-3.83;77.72
64886;BME280;51514;52.206;5.114;2022-12-18T07:09:38;102756.91;;;-3.81;77.50
64886;BME280;51514;52.206;5.114;2022-12-18T07:12:03;102757.78;;;-3.81;77.27
64886;BME280;51514;52.206;5.114;2022-12-18T07:14:30;102769.13;;;-3.77;77.29
64886;BME280;51514;52.206;5.114;2022-12-18T07:16:55;102756.94;;;-3.84;77.62
64886;BME280;51514;52.206;5.114;2022-12-18T07:19:24;102755.22;;;-3.85;77.46
64886;BME280;51514;52.206;5.114;2022-12-18T07:21:50;102750.03;;;-3.91;77.80
64886;BME280;51514;52.206;5.114;2022-12-18T07:24:16;102749.13;;;-3.90;77.96
64886;BME280;51514;52.206;5.114;2022-12-18T07:26:41;102751.69;;;-3.84;77.74
64886;BME280;51514;52.206;5.114;2022-12-18T07:29:06;102745.53;;;-3.83;77.49
64886;BME280;51514;52.206;5.114;2022-12-18T07:31:32;102749.03;;;-3.83;77.19
64886;BME280;51514;52.206;5.114;2022-12-18T07:33:57;102741.09;;;-3.81;77.91
64886;BME280;51514;52.206;5.114;2022-12-18T07:36:22;102736.69;;;-3.79;77.36
64886;BME280;51514;52.206;5.114;2022-12-18T07:38:48;102734.88;;;-3.77;77.72
64886;BME280;51514;52.206;5.114;2022-12-18T07:41:14;102729.72;;;-3.83;77.68
64886;BME280;51514;52.206;5.114;2022-12-18T07:43:40;102721.81;;;-3.83;77.84
64886;BME280;51514;52.206;5.114;2022-12-18T07:46:07;102714.75;;;-3.80;77.57
64886;BME280;51514;52.206;5.114;2022-12-18T07:48:33;102705.09;;;-3.81;77.97
64886;BME280;51514;52.206;5.114;2022-12-18T07:51:02;102702.47;;;-3.82;77.73
64886;BME280;51514;52.206;5.114;2022-12-18T07:53:29;102700.72;;;-3.83;78.28
64886;BME280;51514;52.206;5.114;2022-12-18T07:55:59;102708.63;;;-3.83;78.30
64886;BME280;51514;52.206;5.114;2022-12-18T07:58:24;102701.63;;;-3.86;78.46
64886;BME280;51514;52.206;5.114;2022-12-18T08:00:50;102692.00;;;-3.88;78.71
64886;BME280;51514;52.206;5.114;2022-12-18T08:03:16;102693.91;;;-3.98;78.50
64886;BME280;51514;52.206;5.114;2022-12-18T08:05:41;102691.31;;;-4.01;78.90
64886;BME280;51514;52.206;5.114;2022-12-18T08:08:06;102697.41;;;-3.97;79.28
64886;BME280;51514;52.206;5.114;2022-12-18T08:10:31;102703.38;;;-3.85;79.04
64886;BME280;51514;52.206;5.114;2022-12-18T08:12:57;102699.66;;;-3.69;78.36
64886;BME280;51514;52.206;5.114;2022-12-18T08:15:22;102695.00;;;-3.54;78.27
64886;BME280;51514;52.206;5.114;2022-12-18T08:17:47;102714.19;;;-3.45;78.37
64886;BME280;51514;52.206;5.114;2022-12-18T08:20:13;102716.78;;;-3.42;77.76
64886;BME280;51514;52.206;5.114;2022-12-18T08:22:43;102722.00;;;-3.36;77.89
64886;BME280;51514;52.206;5.114;2022-12-18T08:25:09;102724.56;;;-3.33;77.42
64886;BME280;51514;52.206;5.114;2022-12-18T08:27:35;102722.78;;;-3.31;77.52
64886;BME280;51514;52.206;5.114;2022-12-18T08:30:00;102725.47;;;-3.35;77.31
64886;BME280;51514;52.206;5.114;2022-12-18T08:32:27;102728.16;;;-3.37;76.96
64886;BME280;51514;52.206;5.114;2022-12-18T08:34:52;102734.34;;;-3.39;77.39
64886;BME280;51514;52.206;5.114;2022-12-18T08:37:18;102737.84;;;-3.39;77.73
64886;BME280;51514;52.206;5.114;2022-12-18T08:39:43;102727.31;;;-3.40;77.75
64886;BME280;51514;52.206;5.114;2022-12-18T08:42:09;102714.13;;;-3.39;77.84
64886;BME280;51514;52.206;5.114;2022-12-18T08:44:53;102701.78;;;-3.37;78.09
64886;BME280;51514;52.206;5.114;2022-12-18T08:47:18;102703.47;;;-3.33;78.13
64886;BME280;51514;52.206;5.114;2022-12-18T08:49:43;102704.28;;;-3.27;78.16
64886;BME280;51514;52.206;5.114;2022-12-18T08:52:09;102712.94;;;-3.21;78.29
64886;BME280;51514;52.206;5.114;2022-12-18T08:54:34;102703.19;;;-3.14;77.84
64886;BME280;51514;52.206;5.114;2022-12-18T08:56:59;102710.03;;;-3.04;77.88
64886;BME280;51514;52.206;5.114;2022-12-18T08:59:27;102702.94;;;-3.02;77.70
64886;BME280;51514;52.206;5.114;2022-12-18T09:01:53;102690.41;;;-2.89;78.16
64886;BME280;51514;52.206;5.114;2022-12-18T09:04:19;102676.25;;;-2.84;77.86
64886;BME280;51514;52.206;5.114;2022-12-18T09:06:44;102686.72;;;-2.81;78.10
64886;BME280;51514;52.206;5.114;2022-12-18T09:09:09;102701.66;;;-2.80;77.93
64886;BME280;51514;52.206;5.114;2022-12-18T09:11:35;102704.38;;;-2.83;77.85
64886;BME280;51514;52.206;5.114;2022-12-18T09:14:01;102712.28;;;-2.81;77.72
64886;BME280;51514;52.206;5.114;2022-12-18T09:16:28;102710.34;;;-2.73;77.99
64886;BME280;51514;52.206;5.114;2022-12-18T09:18:56;102716.59;;;-2.79;77.69
64886;BME280;51514;52.206;5.114;2022-12-18T09:21:26;102705.13;;;-2.76;77.89
64886;BME280;51514;52.206;5.114;2022-12-18T09:23:54;102698.06;;;-2.76;77.97
64886;BME280;51514;52.206;5.114;2022-12-18T09:26:24;102704.97;;;-2.69;77.97
64886;BME280;51514;52.206;5.114;2022-12-18T09:28:50;102701.44;;;-2.68;78.35
64886;BME280;51514;52.206;5.114;2022-12-18T09:31:17;102692.56;;;-2.64;78.42
64886;BME280;51514;52.206;5.114;2022-12-18T09:33:44;102696.03;;;-2.60;78.16
64886;BME280;51514;52.206;5.114;2022-12-18T09:36:12;102681.06;;;-2.60;78.10
64886;BME280;51514;52.206;5.114;2022-12-18T09:38:38;102685.47;;;-2.60;78.18
64886;BME280;51514;52.206;5.114;2022-12-18T09:41:32;102673.91;;;-2.54;78.34
64886;BME280;51514;52.206;5.114;2022-12-18T09:44:12;102687.91;;;-2.51;78.40
64886;BME280;51514;52.206;5.114;2022-12-18T09:46:45;102691.44;;;-2.50;78.37
64886;BME280;51514;52.206;5.114;2022-12-18T09:49:16;102689.59;;;-2.48;78.49
64886;BME280;51514;52.206;5.114;2022-12-18T09:52:04;102689.56;;;-2.45;78.72
64886;BME280;51514;52.206;5.114;2022-12-18T09:54:42;102673.72;;;-2.47;78.45
64886;BME280;51514;52.206;5.114;2022-12-18T09:57:18;102652.59;;;-2.45;78.85
64886;BME280;51514;52.206;5.114;2022-12-18T09:59:50;102649.84;;;-2.41;79.07
64886;BME280;51514;52.206;5.114;2022-12-18T10:02:20;102635.72;;;-2.38;79.28
64886;BME280;51514;52.206;5.114;2022-12-18T10:05:05;102642.78;;;-2.39;79.23
64886;BME280;51514;52.206;5.114;2022-12-18T10:08:33;102647.25;;;-2.42;79.07
64886;BME280;51514;52.206;5.114;2022-12-18T10:10:52;102659.56;;;-2.41;80.02
64886;BME280;51514;52.206;5.114;2022-12-18T10:21:13;102668.59;;;-2.11;79.67
64886;BME280;51514;52.206;5.114;2022-12-18T10:26:18;102654.34;;;-2.04;79.42
64886;BME280;51514;52.206;5.114;2022-12-18T10:28:44;102649.00;;;-2.03;79.68
64886;BME280;51514;52.206;5.114;2022-12-18T10:31:21;102652.53;;;-2.02;80.26
64886;BME280;51514;52.206;5.114;2022-12-18T10:33:47;102652.28;;;-1.92;80.03
64886;BME280;51514;52.206;5.114;2022-12-18T10:36:13;102644.31;;;-1.89;79.58
64886;BME280;51514;52.206;5.114;2022-12-18T10:38:39;102645.97;;;-1.85;79.52
64886;BME280;51514;52.206;5.114;2022-12-18T10:43:44;102628.28;;;-1.83;79.41
64886;BME280;51514;52.206;5.114;2022-12-18T10:51:03;102630.56;;;-1.67;79.21
64886;BME280;51514;52.206;5.114;2022-12-18T10:53:33;102629.53;;;-1.62;78.72
64886;BME280;51514;52.206;5.114;2022-12-18T10:56:04;102624.13;;;-1.56;78.97
64886;BME280;51514;52.206;5.114;2022-12-18T10:58:37;102606.47;;;-1.55;78.52
64886;BME280;51514;52.206;5.114;2022-12-18T11:01:16;102603.00;;;-1.57;77.77
64886;BME280;51514;52.206;5.114;2022-12-18T11:03:58;102602.94;;;-1.54;78.61
64886;BME280;51514;52.206;5.114;2022-12-18T11:06:25;102597.50;;;-1.50;78.28
64886;BME280;51514;52.206;5.114;2022-12-18T11:08:59;102592.09;;;-1.45;78.15
64886;BME280;51514;52.206;5.114;2022-12-18T11:11:25;102596.44;;;-1.41;78.28
64886;BME280;51514;52.206;5.114;2022-12-18T11:14:15;102586.53;;;-1.34;78.28
64886;BME280;51514;52.206;5.114;2022-12-18T11:16:46;102592.63;;;-1.31;78.38
64886;BME280;51514;52.206;5.114;2022-12-18T11:21:53;102592.44;;;-1.25;77.15
64886;BME280;51514;52.206;5.114;2022-12-18T11:26:49;102585.16;;;-1.17;77.03
64886;BME280;51514;52.206;5.114;2022-12-18T11:29:23;102582.28;;;-1.07;78.34
64886;BME280;51514;52.206;5.114;2022-12-18T11:31:49;102567.22;;;-1.05;77.75
64886;BME280;51514;52.206;5.114;2022-12-18T11:34:27;102573.19;;;-0.97;77.69
64886;BME280;51514;52.206;5.114;2022-12-18T11:36:54;102583.59;;;-0.91;77.53
64886;BME280;51514;52.206;5.114;2022-12-18T11:39:36;102578.97;;;-0.85;77.17
64886;BME280;51514;52.206;5.114;2022-12-18T11:42:14;102582.34;;;-0.78;77.73
64886;BME280;51514;52.206;5.114;2022-12-18T11:44:52;102572.47;;;-0.73;77.32
64886;BME280;51514;52.206;5.114;2022-12-18T11:47:38;102559.16;;;-0.70;77.05
64886;BME280;51514;52.206;5.114;2022-12-18T11:50:14;102552.03;;;-0.68;77.44
64886;BME280;51514;52.206;5.114;2022-12-18T11:52:41;102548.44;;;-0.65;77.02
64886;BME280;51514;52.206;5.114;2022-12-18T11:55:14;102532.47;;;-0.64;77.03
64886;BME280;51514;52.206;5.114;2022-12-18T12:08:38;102498.25;;;-0.70;75.56
64886;BME280;51514;52.206;5.114;2022-12-18T12:36:27;102474.66;;;-0.50;74.89
64886;BME280;51514;52.206;5.114;2022-12-18T12:39:01;102469.25;;;-0.47;75.09
64886;BME280;51514;52.206;5.114;2022-12-18T12:41:32;102461.28;;;-0.45;75.00
64886;BME280;51514;52.206;5.114;2022-12-18T12:44:44;102462.03;;;-0.42;75.45
64886;BME280;51514;52.206;5.114;2022-12-18T12:47:20;102456.72;;;-0.42;74.97
64886;BME280;51514;52.206;5.114;2022-12-18T12:49:49;102441.59;;;-0.38;75.35
64886;BME280;51514;52.206;5.114;2022-12-18T12:54:43;102447.47;;;-0.28;74.54
64886;BME280;51514;52.206;5.114;2022-12-18T12:57:19;102446.50;;;-0.26;74.56
64886;BME280;51514;52.206;5.114;2022-12-18T13:07:57;102435.63;;;-0.18;74.09
64886;BME280;51514;52.206;5.114;2022-12-18T13:13:07;102434.53;;;-0.11;74.64
64886;BME280;51514;52.206;5.114;2022-12-18T13:15:48;102431.66;;;-0.05;74.87
64886;BME280;51514;52.206;5.114;2022-12-18T13:18:20;102434.09;;;0.01;74.96
64886;BME280;51514;52.206;5.114;2022-12-18T13:20:53;102434.22;;;-0.02;74.15
64886;BME280;51514;52.206;5.114;2022-12-18T13:23:29;102428.91;;;-0.02;74.05
64886;BME280;51514;52.206;5.114;2022-12-18T13:34:20;102398.75;;;0.00;73.16
64886;BME280;51514;52.206;5.114;2022-12-18T13:36:47;102400.50;;;0.02;73.28
64886;BME280;51514;52.206;5.114;2022-12-18T13:41:47;102383.91;;;-0.04;72.93
64886;BME280;51514;52.206;5.114;2022-12-18T13:46:46;102373.84;;;0.06;72.85
64886;BME280;51514;52.206;5.114;2022-12-18T13:51:41;102372.00;;;0.08;72.85
64886;BME280;51514;52.206;5.114;2022-12-18T13:54:33;102355.16;;;0.09;72.81
64886;BME280;51514;52.206;5.114;2022-12-18T13:57:00;102360.47;;;0.09;73.06
64886;BME280;51514;52.206;5.114;2022-12-18T13:59:33;102361.38;;;0.08;72.88
64886;BME280;51514;52.206;5.114;2022-12-18T14:02:00;102360.41;;;0.11;72.92
64886;BME280;51514;52.206;5.114;2022-12-18T14:04:33;102349.88;;;0.09;73.17
64886;BME280;51514;52.206;5.114;2022-12-18T14:07:13;102352.53;;;0.09;73.13
64886;BME280;51514;52.206;5.114;2022-12-18T14:09:47;102357.78;;;0.11;72.45
64886;BME280;51514;52.206;5.114;2022-12-18T14:12:19;102363.00;;;0.12;72.79
64886;BME280;51514;52.206;5.114;2022-12-18T14:15:06;102355.03;;;0.12;72.72
64886;BME280;51514;52.206;5.114;2022-12-18T14:17:40;102355.94;;;0.11;72.14
64886;BME280;51514;52.206;5.114;2022-12-18T14:20:13;102338.22;;;0.13;72.71
64886;BME280;51514;52.206;5.114;2022-12-18T14:22:43;102342.59;;;0.14;72.82
64886;BME280;51514;52.206;5.114;2022-12-18T14:27:38;102340.75;;;0.16;72.96
64886;BME280;51514;52.206;5.114;2022-12-18T14:30:32;102326.63;;;0.16;72.60
64886;BME280;51514;52.206;5.114;2022-12-18T14:35:30;102319.25;;;0.24;72.94
64886;BME280;51514;52.206;5.114;2022-12-18T14:38:21;102314.94;;;0.21;72.38
64886;BME280;51514;52.206;5.114;2022-12-18T14:40:51;102310.44;;;0.23;72.66
64886;BME280;51514;52.206;5.114;2022-12-18T14:43:17;102313.06;;;0.23;72.40
64886;BME280;51514;52.206;5.114;2022-12-18T14:45:44;102311.34;;;0.22;72.12
64886;BME280;51514;52.206;5.114;2022-12-18T14:48:24;102306.03;;;0.22;72.36
64886;BME280;51514;52.206;5.114;2022-12-18T14:50:59;102307.91;;;0.20;72.33
64886;BME280;51514;52.206;5.114;2022-12-18T14:53:45;102303.53;;;0.19;72.30
64886;BME280;51514;52.206;5.114;2022-12-18T14:56:25;102299.88;;;0.22;72.76
64886;BME280;51514;52.206;5.114;2022-12-18T14:58:54;102296.25;;;0.24;72.95